createdAt,value
2022-12-20T00:02:33.836Z,8.55
2022-12-20T00:07:37.700Z,8.60
2022-12-20T00:12:42.813Z,8.80
2022-12-20T00:17:46.535Z,8.77
2022-12-20T00:22:50.317Z,8.87
2022-12-20T00:27:55.415Z,8.96
2022-12-20T00:32:59.196Z,8.91
2022-12-20T00:38:02.937Z,8.93
2022-12-20T00:43:08.117Z,9.04
2022-12-20T00:48:11.836Z,9.07
2022-12-20T00:53:17.828Z,9.07
2022-12-20T00:58:25.248Z,9.15
2022-12-20T01:03:29.286Z,9.09
2022-12-20T01:08:33.285Z,8.95
2022-12-20T01:13:41.207Z,8.78
2022-12-20T01:18:45.265Z,8.72
2022-12-20T01:23:49.397Z,8.63
2022-12-20T01:28:56.846Z,8.60
2022-12-20T01:34:01.719Z,8.56
2022-12-20T01:39:09.092Z,8.55
2022-12-20T01:44:50.245Z,8.52
2022-12-20T01:49:57.238Z,8.48
2022-12-20T01:55:06.537Z,8.47
2022-12-20T02:00:12.023Z,8.47
2022-12-20T02:05:20.702Z,8.48
2022-12-20T02:10:28.542Z,8.43
2022-12-20T02:15:41.200Z,8.36
2022-12-20T02:21:13.825Z,8.35
2022-12-20T02:26:52.507Z,8.40
2022-12-20T02:32:05.114Z,8.41
2022-12-20T02:37:10.657Z,8.40
2022-12-20T02:42:16.796Z,8.45
2022-12-20T02:47:24.875Z,8.52
2022-12-20T02:52:31.120Z,8.63
2022-12-20T02:57:41.904Z,8.64
2022-12-20T03:03:06.799Z,8.65
2022-12-20T03:08:11.480Z,8.66
2022-12-20T03:13:15.589Z,8.71
2022-12-20T03:18:22.047Z,8.67
2022-12-20T03:23:25.935Z,8.66
2022-12-20T03:28:30.179Z,8.74
2022-12-20T03:33:35.516Z,8.76
2022-12-20T03:38:42.416Z,8.85
2022-12-20T03:43:46.651Z,8.89
2022-12-20T03:48:51.898Z,8.94
2022-12-20T03:53:55.712Z,9.07
2022-12-20T03:59:01.272Z,9.12
2022-12-20T04:04:06.901Z,9.12
2022-12-20T04:09:10.683Z,9.19
2022-12-20T04:14:16.702Z,9.19
2022-12-20T04:19:22.016Z,9.30
2022-12-20T04:24:25.939Z,9.38
2022-12-20T04:29:30.629Z,9.35
2022-12-20T04:34:36.505Z,9.32
2022-12-20T04:39:40.379Z,9.37
2022-12-20T04:44:46.261Z,9.40
2022-12-20T04:49:52.227Z,9.41
2022-12-20T04:54:56.494Z,9.49
2022-12-20T05:00:00.677Z,9.50
2022-12-20T05:05:07.183Z,9.48
2022-12-20T05:10:12.580Z,9.45
2022-12-20T05:15:16.631Z,9.53
2022-12-20T05:20:23.067Z,9.56
2022-12-20T05:25:59.402Z,9.59
2022-12-20T05:31:03.996Z,9.58
2022-12-20T05:36:10.988Z,9.59
2022-12-20T05:41:15.898Z,9.59
2022-12-20T05:46:21.194Z,9.56
2022-12-20T05:51:30.232Z,9.60
2022-12-20T05:56:34.068Z,9.63
2022-12-20T06:01:38.120Z,9.63
2022-12-20T06:06:43.959Z,9.65
2022-12-20T06:11:50.457Z,9.61
2022-12-20T06:16:54.565Z,9.59
2022-12-20T06:22:01.068Z,9.59
2022-12-20T06:27:07.684Z,9.56
2022-12-20T06:32:11.551Z,9.45
2022-12-20T06:37:17.257Z,9.47
2022-12-20T06:42:21.132Z,9.50
2022-12-20T06:47:25.155Z,9.51
2022-12-20T06:52:31.074Z,9.50
2022-12-20T06:57:35.197Z,9.54
2022-12-20T07:02:39.185Z,9.59
2022-12-20T07:07:45.460Z,9.65
2022-12-20T07:12:49.612Z,9.69
2022-12-20T07:17:53.512Z,9.68
2022-12-20T07:22:58.591Z,9.71
2022-12-20T07:28:02.323Z,9.71
2022-12-20T07:33:06.254Z,9.69
2022-12-20T07:38:11.572Z,9.70
2022-12-20T07:43:15.295Z,9.66
2022-12-20T07:48:21.783Z,9.63
2022-12-20T07:53:29.819Z,9.62
2022-12-20T07:58:36.159Z,9.60
2022-12-20T08:03:45.218Z,9.64
2022-12-20T08:08:55.543Z,9.68
2022-12-20T08:13:59.300Z,9.65
2022-12-20T08:19:03.078Z,9.45
2022-12-20T08:24:08.732Z,9.33
2022-12-20T08:29:12.602Z,9.24
2022-12-20T08:34:16.332Z,9.18
2022-12-20T08:39:21.620Z,9.14
2022-12-20T08:44:25.768Z,9.09
2022-12-20T08:49:29.681Z,9.07
2022-12-20T08:54:34.825Z,9.05
2022-12-20T08:59:38.610Z,9.02
2022-12-20T09:04:42.537Z,9.01
2022-12-20T09:09:48.955Z,9.02
2022-12-20T09:14:52.926Z,9.00
2022-12-20T09:19:56.750Z,9.05
2022-12-20T09:25:01.843Z,9.05
2022-12-20T09:30:06.601Z,9.04
2022-12-20T09:35:10.862Z,9.01
2022-12-20T09:40:21.383Z,9.03
2022-12-20T09:45:28.971Z,9.03
2022-12-20T09:50:47.185Z,9.10
2022-12-20T09:55:56.808Z,9.09
2022-12-20T10:01:15.342Z,9.12
2022-12-20T10:06:30.025Z,9.12
2022-12-20T10:11:51.361Z,9.14
2022-12-20T10:17:00.261Z,9.13
2022-12-20T10:22:12.553Z,9.17
2022-12-20T10:27:21.152Z,9.22
2022-12-20T10:32:27.525Z,9.24
2022-12-20T10:37:32.232Z,9.29
2022-12-20T10:42:40.753Z,9.27
2022-12-20T10:47:47.229Z,9.30
2022-12-20T10:53:06.045Z,9.32
2022-12-20T10:58:16.966Z,9.30
2022-12-20T11:03:24.587Z,9.29
2022-12-20T11:08:39.129Z,9.28
2022-12-20T11:13:48.723Z,9.28
2022-12-20T11:19:03.232Z,9.28
2022-12-20T11:24:14.385Z,9.28
2022-12-20T11:29:33.763Z,9.32
2022-12-20T11:34:45.225Z,9.29
2022-12-20T11:40:07.485Z,9.30
2022-12-20T11:45:20.985Z,9.33
2022-12-20T11:50:40.971Z,9.31
2022-12-20T11:55:47.830Z,9.29
2022-12-20T12:00:57.360Z,9.33
2022-12-20T12:06:05.840Z,9.31
2022-12-20T12:11:55.759Z,9.35
2022-12-20T12:16:46.739Z,9.35
2022-12-20T12:21:56.926Z,9.37
2022-12-20T12:27:01.678Z,9.37
2022-12-20T12:32:14.785Z,9.38
2022-12-20T12:37:41.220Z,9.40
2022-12-20T12:43:17.274Z,9.43
2022-12-20T12:48:29.106Z,9.42
2022-12-20T12:53:37.894Z,9.44
2022-12-20T12:58:48.799Z,9.43
2022-12-20T13:04:24.952Z,9.41
2022-12-20T13:09:44.139Z,9.40
2022-12-20T13:14:51.139Z,9.41
2022-12-20T13:19:57.564Z,9.41
2022-12-20T13:25:04.134Z,9.42
2022-12-20T13:30:29.480Z,9.43
2022-12-20T13:35:48.685Z,9.41
2022-12-20T13:40:58.853Z,9.37
2022-12-20T13:46:14.982Z,9.37
2022-12-20T13:51:23.005Z,9.39
2022-12-20T13:56:40.627Z,9.37
2022-12-20T14:01:52.573Z,9.39
2022-12-20T14:07:02.175Z,9.37
2022-12-20T14:12:08.016Z,9.37
2022-12-20T14:17:19.158Z,9.35
2022-12-20T14:22:24.499Z,9.35
2022-12-20T14:27:31.513Z,9.31
2022-12-20T14:32:35.504Z,9.35
2022-12-20T14:37:41.636Z,9.38
2022-12-20T14:42:46.578Z,9.34
2022-12-20T14:47:55.345Z,9.34
2022-12-20T14:53:01.267Z,9.33
2022-12-20T14:58:24.297Z,9.30
2022-12-20T15:03:28.526Z,9.29
2022-12-20T15:08:34.404Z,9.28
2022-12-20T15:13:39.719Z,9.27
2022-12-20T15:18:43.640Z,9.28
2022-12-20T15:23:51.507Z,9.25
2022-12-20T15:28:55.804Z,9.24
2022-12-20T15:33:59.768Z,9.20
2022-12-20T15:39:13.540Z,9.23
2022-12-20T15:44:20.934Z,9.18
2022-12-20T15:49:26.195Z,9.16
2022-12-20T15:54:33.135Z,9.15
2022-12-20T16:05:01.595Z,9.14
2022-12-20T16:10:08.480Z,9.11
2022-12-20T16:15:22.658Z,9.11
2022-12-20T16:20:27.635Z,9.13
2022-12-20T16:25:35.140Z,9.10
2022-12-20T16:30:39.387Z,9.15
2022-12-20T16:35:43.132Z,9.12
2022-12-20T16:40:49.259Z,9.10
2022-12-20T16:45:53.167Z,9.12
2022-12-20T16:50:58.177Z,9.11
2022-12-20T16:56:03.670Z,9.12
2022-12-20T17:01:11.512Z,9.11
2022-12-20T17:06:20.644Z,9.10
2022-12-20T17:11:29.093Z,9.08
2022-12-20T17:16:32.660Z,9.07
2022-12-20T17:27:01.564Z,9.10
2022-12-20T17:32:19.864Z,9.07
2022-12-20T17:37:24.612Z,9.06
2022-12-20T17:42:31.708Z,9.09
2022-12-20T17:47:35.689Z,9.08
2022-12-20T17:52:39.439Z,9.07
2022-12-20T17:57:44.686Z,9.09
2022-12-20T18:02:48.619Z,9.08
2022-12-20T18:07:56.752Z,9.09
2022-12-20T18:13:01.949Z,9.08
2022-12-20T18:18:06.303Z,9.08
2022-12-20T18:23:10.129Z,9.07
2022-12-20T18:28:15.276Z,9.09
2022-12-20T18:33:19.010Z,9.07
2022-12-20T18:38:23.425Z,9.08
2022-12-20T18:43:30.624Z,9.08
2022-12-20T18:48:35.063Z,9.09
2022-12-20T18:53:39.857Z,9.09
2022-12-20T18:58:46.091Z,9.09
2022-12-20T19:03:50.100Z,9.10
2022-12-20T19:08:54.055Z,9.05
2022-12-20T19:13:59.259Z,9.04
2022-12-20T19:19:05.228Z,9.07
2022-12-20T19:24:09.765Z,9.07
2022-12-20T19:29:14.938Z,9.05
2022-12-20T19:34:18.852Z,9.04
2022-12-20T19:39:23.667Z,9.05
2022-12-20T19:44:28.816Z,9.06
2022-12-20T19:49:32.711Z,9.07
2022-12-20T19:54:36.647Z,9.04
2022-12-20T19:59:41.777Z,9.04
2022-12-20T20:04:45.590Z,9.03
2022-12-20T20:09:49.341Z,9.04
2022-12-20T20:14:54.568Z,9.05
2022-12-20T20:19:58.339Z,9.04
2022-12-20T20:25:02.201Z,9.06
2022-12-20T20:30:11.113Z,9.06
2022-12-20T20:35:15.071Z,9.03
2022-12-20T20:40:19.106Z,9.02
2022-12-20T20:45:24.248Z,9.01
2022-12-20T20:50:27.948Z,9.02
2022-12-20T20:55:32.234Z,8.97
2022-12-20T21:00:37.589Z,8.99
2022-12-20T21:06:32.421Z,8.99
2022-12-20T21:11:06.462Z,9.00
2022-12-20T21:16:13.701Z,8.95
2022-12-20T21:21:17.488Z,8.83
2022-12-20T21:26:22.860Z,8.87
2022-12-20T21:31:28.829Z,8.88
2022-12-20T21:36:32.678Z,8.89
2022-12-20T21:41:36.408Z,8.87
2022-12-20T21:46:42.485Z,8.87
2022-12-20T21:51:46.268Z,8.87
2022-12-20T21:56:50.238Z,8.85
2022-12-20T22:01:55.822Z,8.87
2022-12-20T22:06:59.757Z,8.86
2022-12-20T22:12:03.670Z,8.80
2022-12-20T22:17:08.787Z,8.82
2022-12-20T22:22:12.616Z,8.81
2022-12-20T22:27:16.495Z,8.81
2022-12-20T22:32:21.619Z,8.79
2022-12-20T22:37:25.405Z,8.80
2022-12-20T22:42:29.128Z,8.76
2022-12-20T22:47:34.430Z,8.75
2022-12-20T22:52:38.175Z,8.72
2022-12-20T22:57:41.955Z,8.74
2022-12-20T23:02:47.295Z,8.71
2022-12-20T23:07:51.211Z,8.69
2022-12-20T23:13:12.576Z,8.68
2022-12-20T23:18:17.713Z,8.64
2022-12-20T23:23:21.500Z,8.64
2022-12-20T23:28:25.401Z,8.62
2022-12-20T23:33:30.693Z,8.65
2022-12-20T23:38:35.372Z,8.64
2022-12-20T23:43:39.231Z,8.64
2022-12-20T23:48:44.623Z,8.62
2022-12-20T23:53:48.681Z,8.57
2022-12-20T23:58:54.147Z,8.56
